createdAt,value
2019-01-21T00:00:50.086Z,102348.13
2019-01-21T00:03:17.390Z,102345.52
2019-01-21T00:05:44.658Z,102348.15
2019-01-21T00:08:11.824Z,102346.89
2019-01-21T00:10:39.054Z,102349.86
2019-01-21T00:13:06.276Z,102349.86
2019-01-21T00:15:33.525Z,102343.33
2019-01-21T00:18:00.766Z,102342.91
2019-01-21T00:20:28.009Z,102339.80
2019-01-21T00:22:55.200Z,102342.47
2019-01-21T00:25:22.371Z,102337.67
2019-01-21T00:27:49.676Z,102336.80
2019-01-21T00:30:16.847Z,102340.29
2019-01-21T00:32:44.041Z,102349.00
2019-01-21T00:35:11.362Z,102347.64
2019-01-21T00:37:38.515Z,102348.53
2019-01-21T00:40:06.076Z,102352.02
2019-01-21T00:42:33.282Z,102341.98
2019-01-21T00:45:00.487Z,102347.22
2019-01-21T00:47:30.044Z,102346.47
2019-01-21T00:49:57.899Z,102352.59
2019-01-21T00:52:25.213Z,102348.36
2019-01-21T00:54:52.863Z,102343.39
2019-01-21T00:57:20.068Z,102342.51
2019-01-21T00:59:47.257Z,102340.73
2019-01-21T01:02:15.043Z,102340.73
2019-01-21T01:04:42.389Z,102333.72
2019-01-21T01:07:09.827Z,102337.70
2019-01-21T01:09:37.301Z,102339.00
2019-01-21T01:12:04.653Z,102342.02
2019-01-21T01:14:31.968Z,102335.88
2019-01-21T01:16:59.265Z,102336.34
2019-01-21T01:19:26.729Z,102338.15
2019-01-21T01:21:53.978Z,102342.47
2019-01-21T01:24:21.258Z,102339.33
2019-01-21T01:26:48.683Z,102341.11
2019-01-21T01:29:15.866Z,102339.39
2019-01-21T01:31:43.311Z,102334.13
2019-01-21T01:34:10.618Z,102335.44
2019-01-21T01:36:37.955Z,102335.80
2019-01-21T01:39:06.343Z,102335.78
2019-01-21T01:41:33.592Z,102333.63
2019-01-21T01:44:00.806Z,102324.08
2019-01-21T01:46:28.020Z,102326.66
2019-01-21T01:48:55.627Z,102325.30
2019-01-21T01:51:22.872Z,102318.32
2019-01-21T01:53:50.146Z,102314.94
2019-01-21T01:56:17.385Z,102313.62
2019-01-21T01:58:44.608Z,102320.53
2019-01-21T02:01:11.844Z,102321.38
2019-01-21T02:03:39.420Z,102319.16
2019-01-21T02:06:06.647Z,102318.33
2019-01-21T02:08:33.838Z,102315.72
2019-01-21T02:11:01.108Z,102309.61
2019-01-21T02:13:28.351Z,102312.22
2019-01-21T02:15:55.672Z,102308.74
2019-01-21T02:18:23.375Z,102306.61
2019-01-21T02:20:50.541Z,102303.52
2019-01-21T02:23:17.773Z,102297.42
2019-01-21T02:25:50.145Z,102289.58
2019-01-21T02:28:37.934Z,102290.05
2019-01-21T02:31:53.276Z,102288.69
2019-01-21T02:34:38.244Z,102288.72
2019-01-21T02:37:53.209Z,102290.92
2019-01-21T02:40:51.694Z,102291.81
2019-01-21T02:44:15.833Z,102291.39
2019-01-21T02:47:27.682Z,102286.15
